createdAt,value
2019-01-31T00:01:34.829Z,100.87
2019-01-31T00:05:12.987Z,97.73
2019-01-31T00:08:27.335Z,100.13
2019-01-31T00:12:08.392Z,94.10
2019-01-31T00:15:17.892Z,96.63
2019-01-31T00:18:42.462Z,90.83
2019-01-31T00:22:27.519Z,92.03
2019-01-31T00:26:18.271Z,92.93
2019-01-31T00:29:37.785Z,91.97
2019-01-31T00:33:08.627Z,84.50
2019-01-31T00:36:21.269Z,82.90
2019-01-31T00:40:20.767Z,89.13
2019-01-31T00:43:35.870Z,88.80
2019-01-31T00:46:51.987Z,82.83
2019-01-31T00:50:10.856Z,83.60
2019-01-31T00:53:25.749Z,78.63
2019-01-31T00:57:07.074Z,79.20
2019-01-31T01:00:22.602Z,76.27
2019-01-31T01:03:44.710Z,77.47
2019-01-31T01:07:24.783Z,84.13
2019-01-31T01:10:57.422Z,76.97
2019-01-31T01:14:36.327Z,77.10
2019-01-31T01:18:07.231Z,75.73
2019-01-31T01:22:07.950Z,72.73
2019-01-31T01:25:46.360Z,72.83
2019-01-31T01:29:23.508Z,72.40
2019-01-31T01:33:23.900Z,70.93
2019-01-31T01:36:53.838Z,69.70
2019-01-31T01:40:39.768Z,70.23
2019-01-31T01:44:12.492Z,71.10
2019-01-31T01:47:33.606Z,66.90
2019-01-31T01:51:14.621Z,68.60
2019-01-31T01:54:51.756Z,66.47
2019-01-31T01:58:08.529Z,66.00
2019-01-31T02:01:55.101Z,67.50
2019-01-31T02:05:27.277Z,63.70
2019-01-31T02:09:08.376Z,62.73
2019-01-31T02:13:00.504Z,63.57
2019-01-31T02:17:01.038Z,60.53
2019-01-31T02:20:54.746Z,63.13
2019-01-31T02:24:27.152Z,58.53
2019-01-31T02:28:15.552Z,62.57
2019-01-31T02:31:46.939Z,58.10
2019-01-31T02:35:03.848Z,56.67
2019-01-31T02:38:51.751Z,55.33
2019-01-31T02:42:18.865Z,57.30
2019-01-31T02:45:49.622Z,56.20
2019-01-31T02:49:18.522Z,53.10
2019-01-31T02:53:24.867Z,53.63
2019-01-31T02:56:50.297Z,53.73
2019-01-31T03:00:56.369Z,53.33
2019-01-31T03:04:42.066Z,51.77
2019-01-31T03:08:09.816Z,51.03
2019-01-31T03:11:44.520Z,50.13
2019-01-31T03:14:56.886Z,51.47
2019-01-31T03:18:29.231Z,52.67
2019-01-31T03:21:44.735Z,48.93
2019-01-31T03:25:18.028Z,49.27
2019-01-31T03:28:46.719Z,50.10
2019-01-31T03:32:18.496Z,50.17
2019-01-31T03:36:07.866Z,48.17
2019-01-31T03:39:36.956Z,46.90
2019-01-31T03:43:24.739Z,48.43
2019-01-31T03:46:47.774Z,46.87
2019-01-31T03:50:03.124Z,47.17
2019-01-31T03:53:40.028Z,42.17
2019-01-31T03:57:16.133Z,44.63
2019-01-31T04:01:10.312Z,44.10
2019-01-31T04:04:18.908Z,43.17
2019-01-31T04:07:22.482Z,43.60
2019-01-31T04:10:26.347Z,41.10
2019-01-31T04:13:29.917Z,42.27
2019-01-31T04:16:33.600Z,40.30
2019-01-31T04:19:37.170Z,42.77
2019-01-31T04:22:41.082Z,39.10
2019-01-31T04:25:44.651Z,38.20
2019-01-31T04:28:48.558Z,37.30
2019-01-31T04:31:52.135Z,37.83
2019-01-31T04:34:55.716Z,37.90
2019-01-31T04:37:59.643Z,36.40
2019-01-31T04:41:03.212Z,37.57
2019-01-31T04:44:06.957Z,39.30
2019-01-31T04:47:10.526Z,37.07
2019-01-31T04:50:14.761Z,38.40
2019-01-31T04:53:18.350Z,35.13
2019-01-31T04:56:22.011Z,35.83
2019-01-31T04:59:25.663Z,35.70
2019-01-31T05:02:29.526Z,34.40
2019-01-31T05:05:33.414Z,33.67
2019-01-31T05:08:36.982Z,34.33
2019-01-31T05:11:40.551Z,34.43
2019-01-31T05:14:44.121Z,35.00
2019-01-31T05:17:47.958Z,33.00
2019-01-31T05:20:51.561Z,42.33
2019-01-31T05:23:55.145Z,132.13
2019-01-31T05:26:58.720Z,123.63
2019-01-31T05:30:02.554Z,98.73
2019-01-31T05:33:06.187Z,82.97
2019-01-31T05:36:10.160Z,72.67
2019-01-31T05:39:13.724Z,64.17
2019-01-31T05:42:17.279Z,58.40
2019-01-31T05:45:20.918Z,52.47
2019-01-31T05:48:24.781Z,56.10
2019-01-31T05:51:28.350Z,24.17
2019-01-31T05:54:32.472Z,49.23
2019-01-31T05:57:36.043Z,72.53
2019-01-31T06:00:39.746Z,41.70
2019-01-31T06:03:43.292Z,32.67
2019-01-31T06:06:46.850Z,84.37
2019-01-31T06:09:50.407Z,119.60
2019-01-31T06:12:53.971Z,104.27
2019-01-31T06:15:57.546Z,95.23
2019-01-31T06:19:01.106Z,91.87
2019-01-31T06:22:04.768Z,82.30
2019-01-31T06:25:08.610Z,76.50
2019-01-31T06:28:13.008Z,73.97
2019-01-31T06:31:16.719Z,70.20
2019-01-31T06:34:20.300Z,65.13
2019-01-31T06:37:23.865Z,64.53
2019-01-31T06:40:27.431Z,63.80
2019-01-31T06:43:30.997Z,59.23
2019-01-31T06:46:34.609Z,58.13
2019-01-31T06:49:38.188Z,57.47
2019-01-31T06:52:41.775Z,54.77
2019-01-31T06:55:45.346Z,54.10
2019-01-31T06:58:49.202Z,53.30
2019-01-31T07:01:52.760Z,50.07
2019-01-31T07:04:56.340Z,49.60
2019-01-31T07:07:59.899Z,49.23
2019-01-31T07:11:03.852Z,45.27
2019-01-31T07:14:07.591Z,46.13
2019-01-31T07:17:11.159Z,45.70
2019-01-31T07:20:15.718Z,42.53
2019-01-31T07:23:19.288Z,41.50
2019-01-31T07:26:23.198Z,40.40
2019-01-31T07:29:27.097Z,38.43
2019-01-31T07:32:30.663Z,39.80
2019-01-31T07:35:34.220Z,41.33
2019-01-31T07:38:37.790Z,39.20
2019-01-31T07:41:41.833Z,35.93
2019-01-31T07:44:45.450Z,35.60
2019-01-31T07:47:49.517Z,35.60
2019-01-31T07:50:53.077Z,35.27
2019-01-31T07:53:56.646Z,35.57
2019-01-31T07:57:00.211Z,34.40
2019-01-31T08:00:05.026Z,33.53
2019-01-31T08:03:08.578Z,34.47
2019-01-31T08:06:12.380Z,31.30
2019-01-31T08:09:15.942Z,31.77
2019-01-31T08:12:19.581Z,28.80
2019-01-31T08:15:23.144Z,30.37
2019-01-31T08:18:26.727Z,31.50
2019-01-31T08:21:30.603Z,27.97
2019-01-31T08:24:34.166Z,27.57
2019-01-31T08:27:37.808Z,28.97
2019-01-31T08:30:42.702Z,25.87
2019-01-31T08:33:46.271Z,26.53
2019-01-31T08:36:49.828Z,25.23
2019-01-31T08:39:53.392Z,25.70
2019-01-31T08:42:57.222Z,26.47
2019-01-31T08:46:00.835Z,27.83
2019-01-31T08:49:04.942Z,26.00
2019-01-31T08:52:08.518Z,25.67
2019-01-31T08:55:12.611Z,23.63
2019-01-31T08:58:16.178Z,22.60
2019-01-31T09:01:19.762Z,19.90
2019-01-31T09:04:23.318Z,20.50
2019-01-31T09:07:29.226Z,21.40
2019-01-31T09:10:35.135Z,20.70
2019-01-31T09:13:38.692Z,20.90
2019-01-31T09:16:42.563Z,21.00
2019-01-31T09:19:46.127Z,18.43
2019-01-31T09:23:16.138Z,19.97
2019-01-31T09:27:04.025Z,19.10
2019-01-31T09:30:34.528Z,18.57
2019-01-31T09:34:29.517Z,18.10
2019-01-31T09:38:13.682Z,18.70
2019-01-31T09:41:54.266Z,18.00
2019-01-31T09:45:44.950Z,17.70
2019-01-31T09:49:13.758Z,16.87
2019-01-31T09:52:26.334Z,17.40
2019-01-31T09:56:08.985Z,17.50
2019-01-31T09:59:40.064Z,16.47
2019-01-31T10:03:36.949Z,14.20
2019-01-31T10:07:18.817Z,14.87
2019-01-31T10:10:46.989Z,15.67
2019-01-31T10:14:23.100Z,13.77
2019-01-31T10:18:20.672Z,14.93
2019-01-31T10:21:41.067Z,14.13
2019-01-31T10:24:57.011Z,12.77
2019-01-31T10:28:20.373Z,13.87
2019-01-31T10:32:00.753Z,13.50
2019-01-31T10:35:46.704Z,13.57
2019-01-31T10:39:30.742Z,11.67
2019-01-31T10:43:06.820Z,12.60
2019-01-31T10:47:00.656Z,12.30
2019-01-31T10:50:31.944Z,12.57
2019-01-31T10:54:13.388Z,11.90
2019-01-31T10:57:41.654Z,11.67
2019-01-31T11:00:56.434Z,11.77
2019-01-31T11:04:27.636Z,11.87
2019-01-31T11:07:38.561Z,11.77
2019-01-31T11:11:16.055Z,11.30
2019-01-31T11:15:10.321Z,11.47
2019-01-31T11:18:35.457Z,10.77
2019-01-31T11:22:11.979Z,9.53
2019-01-31T11:26:05.825Z,10.10
2019-01-31T11:29:39.017Z,10.43
2019-01-31T11:33:10.673Z,8.87
2019-01-31T11:36:46.272Z,8.57
2019-01-31T11:40:12.222Z,9.27
2019-01-31T11:43:27.636Z,8.87
2019-01-31T11:46:59.526Z,8.70
2019-01-31T11:50:44.127Z,9.33
2019-01-31T11:53:56.652Z,9.50
2019-01-31T11:57:50.773Z,8.67
2019-01-31T12:00:54.400Z,8.33
2019-01-31T12:04:10.774Z,7.63
2019-01-31T12:07:14.341Z,7.93
2019-01-31T12:10:18.341Z,7.63
2019-01-31T12:13:23.651Z,8.23
2019-01-31T12:16:27.282Z,7.73
2019-01-31T12:19:30.847Z,7.30
2019-01-31T12:22:34.820Z,8.27
2019-01-31T12:25:38.369Z,7.93
2019-01-31T12:28:41.917Z,7.37
2019-01-31T12:31:45.477Z,6.07
2019-01-31T12:34:49.044Z,7.13
2019-01-31T12:37:52.595Z,6.67
2019-01-31T12:40:56.151Z,7.97
2019-01-31T12:44:00.025Z,7.07
2019-01-31T12:47:03.592Z,7.17
2019-01-31T12:50:09.205Z,6.90
2019-01-31T12:53:12.800Z,5.93
2019-01-31T12:56:16.378Z,6.97
2019-01-31T12:59:19.954Z,5.97
2019-01-31T13:02:23.781Z,5.50
2019-01-31T13:05:27.325Z,6.73
2019-01-31T13:08:30.887Z,5.10
2019-01-31T13:11:34.444Z,6.20
2019-01-31T13:14:38.012Z,5.37
2019-01-31T13:17:41.589Z,4.87
2019-01-31T13:20:45.632Z,6.63
2019-01-31T13:23:49.272Z,5.97
2019-01-31T13:26:53.172Z,6.00
2019-01-31T13:29:56.741Z,4.90
2019-01-31T13:33:00.414Z,5.27
2019-01-31T13:36:04.322Z,4.40
2019-01-31T13:39:12.821Z,5.57
2019-01-31T13:42:16.731Z,4.57
2019-01-31T13:45:26.104Z,6.17
2019-01-31T13:48:29.665Z,5.93
2019-01-31T13:51:33.228Z,5.23
2019-01-31T13:54:36.866Z,4.67
2019-01-31T13:57:40.465Z,4.60
2019-01-31T14:00:44.041Z,4.47
2019-01-31T14:03:47.603Z,4.43
2019-01-31T14:06:51.456Z,6.43
2019-01-31T14:09:55.019Z,5.10
2019-01-31T14:12:58.566Z,4.13
2019-01-31T14:16:02.130Z,4.23
2019-01-31T14:19:05.686Z,4.07
2019-01-31T14:22:09.320Z,4.03
2019-01-31T14:25:13.258Z,5.20
2019-01-31T14:28:17.133Z,4.47
2019-01-31T14:31:21.152Z,4.50
2019-01-31T14:34:24.785Z,4.67
2019-01-31T14:37:28.316Z,4.33
2019-01-31T14:40:31.868Z,4.37
2019-01-31T14:43:35.537Z,3.83
2019-01-31T14:46:39.185Z,3.07
2019-01-31T14:49:42.788Z,4.47
2019-01-31T14:52:46.343Z,3.73
2019-01-31T14:55:49.949Z,5.47
2019-01-31T14:58:53.525Z,4.17
2019-01-31T15:01:57.189Z,4.87
2019-01-31T15:05:00.991Z,3.67
2019-01-31T15:08:05.155Z,3.93
2019-01-31T15:11:08.753Z,3.30
2019-01-31T15:14:12.301Z,3.70
2019-01-31T15:17:15.881Z,4.03
2019-01-31T15:20:22.227Z,4.27
2019-01-31T15:23:25.823Z,3.77
2019-01-31T15:26:29.631Z,5.67
2019-01-31T15:29:33.238Z,6.07
2019-01-31T15:32:36.803Z,5.40
2019-01-31T15:35:40.865Z,5.87
2019-01-31T15:38:44.428Z,17.50
2019-01-31T15:41:48.006Z,11.17
2019-01-31T15:44:51.556Z,7.53
2019-01-31T15:47:55.295Z,35.43
2019-01-31T15:50:58.864Z,51.00
2019-01-31T15:54:02.467Z,48.20
2019-01-31T15:57:16.424Z,46.47
2019-01-31T16:00:27.946Z,44.40
2019-01-31T16:03:31.586Z,42.40
2019-01-31T16:06:35.523Z,35.33
2019-01-31T16:09:39.087Z,32.07
2019-01-31T16:12:42.734Z,29.20
2019-01-31T16:15:46.934Z,28.93
2019-01-31T16:18:50.458Z,26.60
2019-01-31T16:21:54.027Z,25.07
2019-01-31T16:24:57.602Z,27.13
2019-01-31T16:28:01.165Z,24.17
2019-01-31T16:31:04.718Z,22.73
2019-01-31T16:34:08.287Z,23.13
2019-01-31T16:37:11.861Z,22.80
2019-01-31T16:40:15.482Z,23.20
2019-01-31T16:43:19.118Z,21.30
2019-01-31T16:46:22.705Z,20.17
2019-01-31T16:49:26.280Z,20.33
2019-01-31T16:52:29.846Z,19.10
2019-01-31T16:55:33.486Z,19.17
2019-01-31T16:58:37.394Z,17.70
2019-01-31T17:01:40.980Z,19.10
2019-01-31T17:04:44.852Z,17.00
2019-01-31T17:07:48.511Z,17.67
2019-01-31T17:10:52.068Z,17.20
2019-01-31T17:13:55.756Z,17.40
2019-01-31T17:16:59.343Z,17.43
2019-01-31T17:20:04.675Z,16.00
2019-01-31T17:23:08.895Z,18.67
2019-01-31T17:26:12.453Z,14.07
2019-01-31T17:29:16.041Z,14.73
2019-01-31T17:32:19.601Z,14.60
2019-01-31T17:35:23.167Z,14.10
2019-01-31T17:38:26.745Z,14.23
2019-01-31T17:41:30.358Z,14.57
2019-01-31T17:44:34.103Z,13.67
2019-01-31T17:47:37.715Z,13.07
2019-01-31T17:50:41.354Z,12.70
2019-01-31T17:53:45.010Z,12.97
2019-01-31T17:56:48.541Z,12.40
2019-01-31T17:59:52.139Z,11.73
2019-01-31T18:02:55.755Z,13.03
2019-01-31T18:05:59.400Z,11.07
2019-01-31T18:09:03.853Z,13.10
2019-01-31T18:12:07.442Z,12.17
2019-01-31T18:15:11.101Z,10.43
2019-01-31T18:18:14.651Z,11.07
2019-01-31T18:21:18.212Z,10.67
2019-01-31T18:24:21.783Z,10.20
2019-01-31T18:27:25.638Z,10.67
2019-01-31T18:30:29.992Z,9.10
2019-01-31T18:33:33.563Z,10.33
2019-01-31T18:36:37.136Z,10.03
2019-01-31T18:39:40.680Z,9.17
2019-01-31T18:42:44.305Z,9.13
2019-01-31T18:45:53.382Z,9.57
2019-01-31T18:48:53.185Z,8.90
2019-01-31T18:51:56.752Z,8.80
2019-01-31T18:55:00.349Z,8.53
2019-01-31T18:58:03.895Z,8.30
2019-01-31T19:01:07.636Z,7.83
2019-01-31T19:04:11.201Z,8.40
2019-01-31T19:07:14.756Z,7.10
2019-01-31T19:10:18.484Z,7.87
2019-01-31T19:13:22.262Z,10.40
2019-01-31T19:16:25.939Z,7.87
2019-01-31T19:19:30.057Z,7.10
2019-01-31T19:22:33.648Z,8.83
2019-01-31T19:25:37.271Z,7.03
2019-01-31T19:28:40.820Z,7.10
2019-01-31T19:31:44.379Z,6.70
2019-01-31T19:34:48.242Z,6.53
2019-01-31T19:38:01.512Z,6.50
2019-01-31T19:40:57.322Z,5.97
2019-01-31T19:44:00.862Z,6.67
2019-01-31T19:47:04.783Z,6.97
2019-01-31T19:50:09.243Z,5.63
2019-01-31T19:53:13.266Z,6.03
2019-01-31T19:56:16.860Z,5.63
2019-01-31T19:59:20.385Z,6.50
2019-01-31T20:02:24.610Z,5.00
2019-01-31T20:05:28.367Z,5.87
2019-01-31T20:08:31.944Z,6.37
2019-01-31T20:11:35.616Z,6.20
2019-01-31T20:14:39.162Z,5.57
2019-01-31T20:17:42.797Z,5.50
2019-01-31T20:20:46.441Z,5.40
2019-01-31T20:23:50.316Z,6.37
2019-01-31T20:26:53.911Z,5.87
2019-01-31T20:29:57.821Z,5.13
2019-01-31T20:33:02.477Z,5.37
2019-01-31T20:36:06.099Z,5.40
2019-01-31T20:39:10.392Z,4.63
2019-01-31T20:42:13.925Z,5.53
2019-01-31T20:45:17.644Z,4.93
2019-01-31T20:48:21.403Z,5.50
2019-01-31T20:51:24.942Z,4.30
2019-01-31T20:54:28.853Z,5.23
2019-01-31T20:57:32.411Z,4.70
2019-01-31T21:00:38.256Z,4.70
2019-01-31T21:03:41.822Z,4.93
2019-01-31T21:06:45.385Z,3.70
2019-01-31T21:09:48.924Z,4.70
2019-01-31T21:12:52.860Z,4.57
2019-01-31T21:15:56.436Z,4.87
2019-01-31T21:19:00.093Z,5.10
2019-01-31T21:22:03.769Z,4.00
2019-01-31T21:25:09.031Z,4.33
2019-01-31T21:28:12.607Z,4.50
2019-01-31T21:31:16.158Z,5.43
2019-01-31T21:34:20.050Z,8.37
2019-01-31T21:37:23.610Z,9.37
2019-01-31T21:40:28.906Z,9.47
2019-01-31T21:43:32.539Z,7.90
2019-01-31T21:46:36.095Z,7.67
2019-01-31T21:49:39.654Z,8.50
2019-01-31T21:52:43.820Z,7.40
2019-01-31T21:55:47.378Z,5.47
2019-01-31T21:58:51.279Z,5.67
2019-01-31T22:01:55.212Z,30.47
2019-01-31T22:04:58.818Z,30.30
2019-01-31T22:08:02.607Z,21.13
2019-01-31T22:11:06.219Z,35.73
2019-01-31T22:14:09.797Z,42.20
2019-01-31T22:17:14.809Z,48.33
2019-01-31T22:20:18.898Z,45.47
2019-01-31T22:23:22.469Z,40.07
2019-01-31T22:26:26.035Z,41.33
2019-01-31T22:29:29.608Z,37.17
2019-01-31T22:32:33.172Z,41.23
2019-01-31T22:35:37.403Z,38.13
2019-01-31T22:38:41.226Z,36.17
2019-01-31T22:41:45.105Z,34.83
2019-01-31T22:44:48.675Z,38.23
2019-01-31T22:47:52.257Z,34.83
2019-01-31T22:50:56.456Z,32.77
2019-01-31T22:54:00.306Z,34.23
2019-01-31T22:57:03.871Z,28.63
2019-01-31T23:00:15.257Z,34.10
2019-01-31T23:03:18.892Z,29.27
2019-01-31T23:06:22.827Z,28.67
2019-01-31T23:09:26.399Z,25.30
2019-01-31T23:12:29.957Z,26.00
2019-01-31T23:15:33.536Z,25.57
2019-01-31T23:18:37.090Z,22.93
2019-01-31T23:21:40.909Z,22.87
2019-01-31T23:24:44.483Z,21.50
2019-01-31T23:27:48.316Z,21.80
2019-01-31T23:30:51.883Z,23.23
2019-01-31T23:33:55.731Z,22.63
2019-01-31T23:36:59.310Z,21.97
2019-01-31T23:40:02.890Z,22.00
2019-01-31T23:43:06.535Z,20.77
2019-01-31T23:46:10.350Z,19.43
2019-01-31T23:49:13.920Z,19.10
2019-01-31T23:52:17.517Z,18.30
2019-01-31T23:55:21.193Z,16.03
2019-01-31T23:58:24.741Z,17.50
